createdAt,value
2019-02-20T00:01:03.323Z,87.44
2019-02-20T00:03:33.576Z,87.22
2019-02-20T00:06:03.066Z,87.19
2019-02-20T00:08:32.190Z,87.64
2019-02-20T00:11:01.763Z,87.39
2019-02-20T00:13:31.113Z,87.80
2019-02-20T00:16:00.065Z,87.65
2019-02-20T00:18:28.970Z,87.54
2019-02-20T00:20:57.891Z,87.86
2019-02-20T00:23:26.717Z,87.76
2019-02-20T00:25:58.454Z,87.63
2019-02-20T00:28:28.641Z,87.90
2019-02-20T00:30:58.178Z,88.58
2019-02-20T00:33:27.391Z,88.35
2019-02-20T00:35:56.355Z,88.30
2019-02-20T00:38:25.860Z,88.16
2019-02-20T00:40:56.467Z,88.45
2019-02-20T00:43:25.998Z,88.67
2019-02-20T00:46:26.868Z,88.83
2019-02-20T00:49:09.233Z,88.52
2019-02-20T00:51:57.290Z,88.37
2019-02-20T00:54:26.207Z,88.39
2019-02-20T00:56:55.251Z,88.66
2019-02-20T00:59:24.528Z,88.85
2019-02-20T01:01:55.836Z,89.11
2019-02-20T01:04:24.834Z,89.58
2019-02-20T01:17:39.079Z,89.77
2019-02-20T01:20:08.430Z,90.37
2019-02-20T01:22:37.551Z,90.06
2019-02-20T01:25:06.607Z,89.74
2019-02-20T01:27:35.608Z,89.67
2019-02-20T01:30:04.996Z,89.44
2019-02-20T01:32:34.299Z,89.80
2019-02-20T01:35:03.590Z,89.80
2019-02-20T01:37:33.095Z,89.33
2019-02-20T01:40:02.317Z,89.27
2019-02-20T01:42:31.277Z,89.05
2019-02-20T01:45:00.298Z,88.67
2019-02-20T01:47:29.413Z,89.05
2019-02-20T01:50:36.964Z,88.76
2019-02-20T01:53:10.352Z,88.81
2019-02-20T01:55:35.922Z,88.58
2019-02-20T01:58:04.806Z,88.36
2019-02-20T02:00:33.976Z,88.57
2019-02-20T02:03:02.907Z,88.67
2019-02-20T02:05:31.858Z,88.29
2019-02-20T02:08:01.229Z,88.16
2019-02-20T02:10:31.427Z,87.81
2019-02-20T02:13:00.520Z,87.58
2019-02-20T02:15:29.420Z,87.93
2019-02-20T02:18:02.961Z,87.37
2019-02-20T02:20:32.249Z,87.39
2019-02-20T02:23:01.140Z,87.41
2019-02-20T02:25:30.094Z,87.06
2019-02-20T02:27:59.323Z,87.43
2019-02-20T02:30:28.754Z,87.41
2019-02-20T02:32:57.668Z,87.48
2019-02-20T02:35:26.715Z,87.03
2019-02-20T02:37:58.252Z,87.31
2019-02-20T02:40:27.535Z,87.13
2019-02-20T02:42:56.701Z,87.28
2019-02-20T02:45:26.353Z,87.31
2019-02-20T02:47:55.450Z,88.35
2019-02-20T02:50:24.361Z,88.52
2019-02-20T02:52:53.372Z,88.64
2019-02-20T02:55:25.301Z,88.86
2019-02-20T02:57:54.929Z,88.36
2019-02-20T03:00:24.059Z,88.10
2019-02-20T03:02:53.152Z,88.33
2019-02-20T03:05:24.525Z,88.38
2019-02-20T03:07:53.491Z,88.69
2019-02-20T03:10:22.417Z,89.02
2019-02-20T03:12:51.652Z,88.43
2019-02-20T03:15:20.575Z,88.08
2019-02-20T03:17:49.908Z,87.86
2019-02-20T03:20:18.740Z,87.78
2019-02-20T03:22:47.768Z,87.67
2019-02-20T03:25:21.446Z,87.59
2019-02-20T03:27:49.765Z,87.83
2019-02-20T03:30:18.830Z,87.70
2019-02-20T03:32:47.686Z,87.44
2019-02-20T03:35:16.507Z,87.39
2019-02-20T03:37:45.564Z,87.38
2019-02-20T03:40:14.607Z,87.40
2019-02-20T03:42:43.699Z,87.17
2019-02-20T03:45:12.624Z,87.26
2019-02-20T03:47:41.925Z,86.88
2019-02-20T03:50:10.902Z,87.03
2019-02-20T03:52:40.028Z,87.04
2019-02-20T03:55:09.180Z,86.81
2019-02-20T03:57:38.364Z,86.76
2019-02-20T04:00:07.621Z,86.87
2019-02-20T04:02:36.716Z,86.97
2019-02-20T04:05:05.959Z,86.93
2019-02-20T04:07:34.816Z,87.13
2019-02-20T04:10:04.111Z,87.16
2019-02-20T04:12:33.013Z,87.36
2019-02-20T04:15:06.352Z,87.41
2019-02-20T04:17:36.421Z,87.57
2019-02-20T04:20:06.189Z,87.58
2019-02-20T04:22:35.255Z,87.54
2019-02-20T04:25:04.281Z,87.66
2019-02-20T04:27:33.366Z,87.99
2019-02-20T04:30:02.287Z,87.96
2019-02-20T04:32:31.208Z,88.03
2019-02-20T04:35:00.424Z,88.29
2019-02-20T04:37:29.321Z,88.24
2019-02-20T04:39:58.389Z,88.30
2019-02-20T04:42:27.477Z,88.07
2019-02-20T04:44:56.869Z,88.28
2019-02-20T04:47:26.216Z,88.26
2019-02-20T04:49:55.159Z,88.06
2019-02-20T04:52:24.018Z,88.33
2019-02-20T04:54:52.954Z,88.57
2019-02-20T04:57:21.974Z,88.19
2019-02-20T04:59:50.803Z,88.13
2019-02-20T05:02:19.925Z,88.08
2019-02-20T05:04:48.721Z,88.23
2019-02-20T05:07:17.572Z,88.31
2019-02-20T05:09:46.482Z,88.14
2019-02-20T05:12:15.396Z,88.22
2019-02-20T05:14:44.339Z,88.06
2019-02-20T05:17:13.226Z,88.20
2019-02-20T05:19:44.423Z,88.38
2019-02-20T05:22:13.333Z,88.07
2019-02-20T05:24:42.483Z,88.33
2019-02-20T05:27:11.524Z,88.36
2019-02-20T05:29:40.669Z,88.53
2019-02-20T05:32:09.542Z,88.31
2019-02-20T05:34:38.404Z,88.29
2019-02-20T05:37:07.698Z,88.09
2019-02-20T05:39:36.506Z,88.30
2019-02-20T05:42:05.850Z,88.35
2019-02-20T05:44:35.818Z,88.27
2019-02-20T05:47:04.969Z,88.85
2019-02-20T05:49:33.802Z,88.79
2019-02-20T05:52:03.745Z,88.68
2019-02-20T05:54:34.966Z,88.67
2019-02-20T05:57:03.387Z,88.60
2019-02-20T05:59:32.213Z,88.84
2019-02-20T06:02:01.028Z,88.72
2019-02-20T06:04:29.913Z,88.54
2019-02-20T06:06:58.818Z,88.84
2019-02-20T06:09:28.539Z,88.73
2019-02-20T06:11:57.553Z,88.98
2019-02-20T06:18:08.501Z,88.92
2019-02-20T06:20:40.253Z,89.23
2019-02-20T06:23:09.250Z,89.00
2019-02-20T06:25:40.080Z,89.06
2019-02-20T06:28:09.787Z,89.13
2019-02-20T06:30:39.378Z,89.33
2019-02-20T06:33:08.615Z,89.46
2019-02-20T06:35:37.440Z,89.48
2019-02-20T06:38:10.674Z,89.28
2019-02-20T06:40:38.070Z,89.19
2019-02-20T06:43:07.621Z,89.37
2019-02-20T06:45:36.801Z,89.50
2019-02-20T06:48:05.559Z,89.31
2019-02-20T06:50:34.364Z,89.35
2019-02-20T06:53:03.214Z,89.54
2019-02-20T06:55:32.091Z,89.31
2019-02-20T06:58:00.972Z,89.40
2019-02-20T07:00:30.019Z,89.25
2019-02-20T07:02:58.891Z,89.16
2019-02-20T07:05:39.477Z,89.32
2019-02-20T07:08:44.700Z,89.26
2019-02-20T07:11:25.193Z,89.15
2019-02-20T07:14:10.345Z,89.31
2019-02-20T07:16:57.794Z,89.33
2019-02-20T07:19:40.762Z,89.40
2019-02-20T07:22:50.599Z,89.08
2019-02-20T07:25:43.625Z,89.27
2019-02-20T07:28:41.904Z,88.97
2019-02-20T07:31:12.516Z,89.13
2019-02-20T07:33:41.500Z,88.83
2019-02-20T07:36:10.823Z,89.31
2019-02-20T07:38:40.123Z,89.10
2019-02-20T07:41:09.249Z,88.91
2019-02-20T07:43:38.195Z,88.99
2019-02-20T07:46:07.209Z,88.85
2019-02-20T07:48:36.458Z,88.53
2019-02-20T07:51:05.258Z,88.68
2019-02-20T07:53:35.514Z,88.56
2019-02-20T07:56:05.630Z,88.62
2019-02-20T07:58:34.669Z,88.65
2019-02-20T08:01:03.635Z,88.45
2019-02-20T08:03:33.036Z,88.33
2019-02-20T08:06:02.517Z,88.30
2019-02-20T08:08:32.051Z,88.94
2019-02-20T08:11:01.837Z,88.27
2019-02-20T08:13:39.068Z,87.99
2019-02-20T08:16:01.883Z,88.12
2019-02-20T08:18:32.296Z,87.81
2019-02-20T08:21:01.424Z,87.83
2019-02-20T08:23:30.579Z,87.88
2019-02-20T08:25:59.815Z,87.58
2019-02-20T08:28:28.736Z,87.67
2019-02-20T08:30:57.805Z,87.32
2019-02-20T08:33:28.109Z,87.52
2019-02-20T08:35:57.436Z,87.45
2019-02-20T08:38:26.749Z,87.50
2019-02-20T08:40:55.581Z,87.80
2019-02-20T08:43:24.847Z,87.44
2019-02-20T08:45:53.624Z,87.44
2019-02-20T08:48:23.266Z,87.88
2019-02-20T08:50:52.568Z,87.43
2019-02-20T08:53:21.722Z,87.18
2019-02-20T08:55:50.979Z,87.60
2019-02-20T08:58:20.234Z,87.28
2019-02-20T09:00:49.126Z,87.61
2019-02-20T09:03:18.833Z,87.38
2019-02-20T09:05:47.658Z,87.59
2019-02-20T09:08:16.585Z,87.43
2019-02-20T09:10:45.948Z,87.21
2019-02-20T09:13:14.804Z,86.72
2019-02-20T09:15:45.514Z,87.11
2019-02-20T09:18:15.804Z,87.29
2019-02-20T09:20:48.318Z,87.06
2019-02-20T09:23:18.332Z,87.10
2019-02-20T09:25:47.758Z,86.80
2019-02-20T09:28:17.312Z,86.61
2019-02-20T09:30:46.435Z,86.75
2019-02-20T09:33:15.785Z,86.72
2019-02-20T09:35:46.240Z,87.10
2019-02-20T09:38:16.707Z,86.70
2019-02-20T09:40:45.667Z,86.81
2019-02-20T09:43:15.880Z,86.38
2019-02-20T09:45:45.807Z,86.62
2019-02-20T09:48:14.933Z,86.25
2019-02-20T09:50:44.482Z,85.87
2019-02-20T09:53:17.423Z,85.83
2019-02-20T09:55:51.541Z,85.66
2019-02-20T09:58:17.376Z,85.74
2019-02-20T10:00:47.002Z,85.43
2019-02-20T10:03:16.556Z,85.48
2019-02-20T10:05:45.332Z,85.34
2019-02-20T10:08:14.518Z,85.10
2019-02-20T10:10:44.043Z,85.26
2019-02-20T10:13:13.482Z,84.84
2019-02-20T10:15:43.013Z,84.69
2019-02-20T10:18:13.065Z,84.67
2019-02-20T10:20:43.867Z,84.60
2019-02-20T10:23:13.222Z,84.67
2019-02-20T10:25:42.618Z,84.46
2019-02-20T10:28:11.961Z,84.28
2019-02-20T10:30:40.761Z,84.50
2019-02-20T10:33:10.101Z,84.44
2019-02-20T10:35:40.369Z,84.67
2019-02-20T10:38:09.378Z,84.12
2019-02-20T10:40:38.877Z,83.96
2019-02-20T10:43:07.734Z,83.73
2019-02-20T10:45:36.923Z,83.67
2019-02-20T10:48:06.130Z,83.41
2019-02-20T10:50:35.114Z,82.94
2019-02-20T10:53:04.344Z,82.88
2019-02-20T10:55:33.575Z,83.12
2019-02-20T10:58:02.834Z,82.73
2019-02-20T11:00:32.752Z,82.52
2019-02-20T11:03:01.584Z,82.33
2019-02-20T11:05:30.536Z,82.34
2019-02-20T11:07:59.653Z,82.11
2019-02-20T11:10:29.983Z,81.72
2019-02-20T11:12:59.249Z,81.69
2019-02-20T11:15:30.571Z,81.78
2019-02-20T11:17:59.550Z,82.07
2019-02-20T11:20:29.940Z,82.21
2019-02-20T11:22:59.272Z,82.10
2019-02-20T11:25:28.820Z,82.40
2019-02-20T11:27:57.863Z,82.28
2019-02-20T11:30:26.945Z,82.37
2019-02-20T11:32:57.850Z,82.25
2019-02-20T11:35:26.942Z,82.17
2019-02-20T11:37:56.398Z,82.42
2019-02-20T11:40:25.618Z,81.69
2019-02-20T11:42:54.410Z,82.14
2019-02-20T11:45:24.911Z,82.12
2019-02-20T11:47:55.002Z,81.90
2019-02-20T11:50:23.957Z,81.84
2019-02-20T11:52:52.925Z,82.11
2019-02-20T11:55:22.305Z,81.73
2019-02-20T11:58:00.297Z,81.33
2019-02-20T12:00:23.480Z,81.61
2019-02-20T12:02:53.459Z,81.14
2019-02-20T12:05:25.844Z,81.00
2019-02-20T12:07:54.770Z,81.35
2019-02-20T12:10:23.945Z,80.84
2019-02-20T12:12:53.184Z,80.25
2019-02-20T12:15:22.442Z,80.36
2019-02-20T12:17:51.614Z,80.04
2019-02-20T12:20:20.709Z,80.46
2019-02-20T12:22:49.921Z,79.94
2019-02-20T12:25:19.922Z,79.76
2019-02-20T12:27:49.194Z,80.02
2019-02-20T12:30:18.797Z,79.83
2019-02-20T12:32:49.535Z,79.74
2019-02-20T12:35:18.799Z,79.85
2019-02-20T12:37:48.211Z,80.08
2019-02-20T12:40:19.147Z,80.03
2019-02-20T12:42:48.592Z,79.29
2019-02-20T12:45:17.866Z,79.23
2019-02-20T12:47:46.636Z,78.92
2019-02-20T12:50:15.865Z,79.11
2019-02-20T12:52:45.271Z,78.97
2019-02-20T12:55:15.460Z,79.31
2019-02-20T12:57:44.753Z,79.33
2019-02-20T13:00:15.746Z,79.37
2019-02-20T13:02:44.561Z,79.34
2019-02-20T13:05:13.818Z,79.33
2019-02-20T13:07:42.887Z,78.84
2019-02-20T13:10:14.396Z,78.53
2019-02-20T13:12:44.354Z,78.18
2019-02-20T13:15:13.325Z,77.65
2019-02-20T13:17:42.280Z,77.58
2019-02-20T13:20:11.483Z,77.82
2019-02-20T13:22:40.649Z,77.46
2019-02-20T13:25:10.263Z,77.45
2019-02-20T13:27:40.236Z,77.22
2019-02-20T13:30:10.394Z,77.41
2019-02-20T13:32:39.691Z,76.71
2019-02-20T13:35:09.271Z,76.55
2019-02-20T13:37:38.268Z,76.57
2019-02-20T13:40:07.929Z,75.69
2019-02-20T13:42:39.106Z,75.90
2019-02-20T13:45:10.280Z,75.45
2019-02-20T13:47:40.438Z,75.27
2019-02-20T13:50:11.817Z,75.21
2019-02-20T13:52:52.426Z,75.30
2019-02-20T13:55:34.022Z,74.83
2019-02-20T13:57:57.069Z,74.48
2019-02-20T14:00:27.229Z,74.04
2019-02-20T14:02:56.094Z,74.42
2019-02-20T14:05:25.731Z,74.47
2019-02-20T14:07:55.052Z,74.50
2019-02-20T14:10:24.030Z,74.48
2019-02-20T14:12:54.331Z,74.30
2019-02-20T14:15:25.090Z,74.40
2019-02-20T14:17:55.766Z,74.04
2019-02-20T14:20:25.122Z,73.85
2019-02-20T14:22:59.903Z,73.48
2019-02-20T14:25:30.569Z,72.98
2019-02-20T14:28:18.436Z,72.85
2019-02-20T14:30:48.724Z,73.22
2019-02-20T14:33:18.864Z,72.31
2019-02-20T14:35:49.295Z,72.67
2019-02-20T14:38:25.758Z,73.04
2019-02-20T14:40:55.093Z,73.27
2019-02-20T14:43:26.611Z,73.27
2019-02-20T14:46:10.039Z,73.43
2019-02-20T14:48:52.908Z,73.66
2019-02-20T14:51:20.823Z,73.62
2019-02-20T14:53:51.584Z,73.83
2019-02-20T14:56:20.536Z,74.01
2019-02-20T14:58:50.674Z,74.01
2019-02-20T15:01:20.107Z,74.10
2019-02-20T15:03:51.173Z,73.73
2019-02-20T15:06:20.483Z,74.07
2019-02-20T15:08:49.710Z,73.84
2019-02-20T15:11:19.047Z,73.53
2019-02-20T15:13:47.865Z,73.47
2019-02-20T15:16:16.983Z,74.00
2019-02-20T15:18:46.272Z,74.01
2019-02-20T15:21:16.755Z,73.86
2019-02-20T15:23:45.745Z,74.04
2019-02-20T15:26:16.609Z,74.46
2019-02-20T15:28:47.010Z,74.51
2019-02-20T15:31:16.160Z,74.26
2019-02-20T15:33:45.051Z,74.44
2019-02-20T15:36:13.881Z,74.91
2019-02-20T15:38:43.300Z,74.71
2019-02-20T15:41:12.556Z,75.22
2019-02-20T15:43:41.435Z,75.32
2019-02-20T15:46:11.827Z,74.80
2019-02-20T15:48:41.224Z,74.82
2019-02-20T15:51:10.230Z,74.83
2019-02-20T15:53:39.401Z,74.98
2019-02-20T15:56:08.334Z,74.92
2019-02-20T15:58:37.445Z,74.88
2019-02-20T16:01:09.129Z,74.73
2019-02-20T16:03:38.411Z,74.86
2019-02-20T16:06:07.541Z,74.59
2019-02-20T16:08:36.728Z,74.69
2019-02-20T16:11:05.770Z,74.70
2019-02-20T16:13:36.046Z,74.59
2019-02-20T16:16:05.045Z,74.90
2019-02-20T16:18:34.234Z,74.32
2019-02-20T16:21:03.545Z,74.28
2019-02-20T16:23:32.767Z,74.63
2019-02-20T16:26:02.302Z,74.42
2019-02-20T16:28:33.895Z,73.99
2019-02-20T16:31:03.486Z,73.75
2019-02-20T16:33:34.494Z,73.35
2019-02-20T16:36:04.532Z,73.50
2019-02-20T16:38:33.864Z,73.74
2019-02-20T16:41:04.744Z,73.50
2019-02-20T16:43:35.417Z,73.24
2019-02-20T16:46:04.783Z,73.62
2019-02-20T16:48:33.681Z,73.41
2019-02-20T16:51:02.622Z,73.26
2019-02-20T16:53:37.855Z,73.39
2019-02-20T16:56:07.192Z,73.99
2019-02-20T16:58:36.199Z,74.64
2019-02-20T17:07:38.684Z,75.98
2019-02-20T17:10:11.527Z,76.03
2019-02-20T17:12:54.217Z,76.29
2019-02-20T17:15:27.728Z,76.07
2019-02-20T17:18:00.098Z,76.08
2019-02-20T17:20:30.682Z,76.29
2019-02-20T17:23:00.977Z,76.13
2019-02-20T17:25:36.790Z,75.85
2019-02-20T17:28:09.320Z,75.96
2019-02-20T17:30:39.726Z,75.37
2019-02-20T17:33:08.857Z,75.43
2019-02-20T17:35:38.734Z,75.24
2019-02-20T17:43:53.587Z,75.84
2019-02-20T17:46:23.157Z,75.24
2019-02-20T17:48:52.623Z,74.90
2019-02-20T17:51:24.032Z,73.74
2019-02-20T17:53:53.295Z,73.60
2019-02-20T17:56:22.540Z,73.53
2019-02-20T17:58:53.891Z,73.44
2019-02-20T18:01:23.723Z,73.21
2019-02-20T18:03:52.923Z,73.05
2019-02-20T18:06:21.890Z,72.88
2019-02-20T18:08:50.769Z,72.70
2019-02-20T18:11:20.905Z,72.87
2019-02-20T18:13:49.717Z,73.37
2019-02-20T18:16:18.539Z,73.43
2019-02-20T18:18:48.335Z,73.32
2019-02-20T18:21:17.386Z,73.50
2019-02-20T18:23:46.572Z,73.41
2019-02-20T18:26:16.589Z,72.42
2019-02-20T18:28:45.439Z,72.57
2019-02-20T18:31:14.262Z,72.20
2019-02-20T18:33:43.129Z,72.22
2019-02-20T18:36:12.807Z,72.78
2019-02-20T18:38:41.913Z,72.72
2019-02-20T18:41:11.437Z,72.82
2019-02-20T18:43:40.789Z,72.56
2019-02-20T18:46:09.686Z,72.93
2019-02-20T18:48:40.553Z,72.99
2019-02-20T18:51:09.533Z,72.96
2019-02-20T18:53:38.977Z,72.44
2019-02-20T18:56:09.162Z,73.14
2019-02-20T18:58:39.317Z,72.86
2019-02-20T19:01:14.579Z,72.81
2019-02-20T19:07:24.570Z,72.70
2019-02-20T19:09:56.068Z,72.96
2019-02-20T19:13:00.427Z,72.82
2019-02-20T19:16:26.653Z,72.88
2019-02-20T19:19:34.748Z,72.75
2019-02-20T19:22:22.887Z,72.18
2019-02-20T19:28:52.492Z,72.41
2019-02-20T19:32:08.642Z,72.80
2019-02-20T19:35:00.686Z,72.44
2019-02-20T19:37:52.185Z,72.04
2019-02-20T19:40:43.712Z,71.87
2019-02-20T19:43:37.600Z,71.81
2019-02-20T19:46:59.603Z,71.76
2019-02-20T19:50:13.473Z,71.18
2019-02-20T19:53:09.797Z,71.39
2019-02-20T19:56:02.388Z,71.44
2019-02-20T19:59:08.415Z,71.12
2019-02-20T20:02:16.443Z,70.82
2019-02-20T20:05:22.633Z,71.39
2019-02-20T20:08:05.054Z,70.93
2019-02-20T20:11:05.047Z,70.78
2019-02-20T20:14:21.833Z,70.62
2019-02-20T20:17:38.358Z,70.61
2019-02-20T20:20:12.939Z,70.70
2019-02-20T20:26:57.483Z,70.59
2019-02-20T20:33:38.685Z,70.06
2019-02-20T20:36:38.226Z,70.01
2019-02-20T20:39:59.652Z,69.73
2019-02-20T20:43:12.549Z,69.98
2019-02-20T20:46:25.435Z,69.77
2019-02-20T20:49:57.463Z,69.89
2019-02-20T21:06:28.739Z,70.09
2019-02-20T21:09:49.419Z,70.27
2019-02-20T21:13:11.854Z,70.32
2019-02-20T21:16:06.203Z,70.74
2019-02-20T21:19:08.075Z,70.49
2019-02-20T21:21:55.225Z,70.87
2019-02-20T21:24:56.907Z,70.73
2019-02-20T21:28:05.769Z,70.42
2019-02-20T21:31:16.363Z,70.67
2019-02-20T21:34:32.661Z,70.83
2019-02-20T21:37:58.141Z,70.74
2019-02-20T21:40:41.925Z,71.04
2019-02-20T21:44:04.591Z,70.87
2019-02-20T21:46:57.222Z,71.23
2019-02-20T21:49:56.504Z,71.09
2019-02-20T21:52:49.851Z,71.19
2019-02-20T21:56:16.113Z,71.30
2019-02-20T21:59:22.427Z,71.23
2019-02-20T22:02:29.495Z,71.46
2019-02-20T22:05:16.339Z,71.70
2019-02-20T22:07:58.817Z,71.48
2019-02-20T22:11:20.657Z,71.54
2019-02-20T22:14:16.817Z,71.68
2019-02-20T22:16:57.626Z,71.60
2019-02-20T22:19:54.809Z,71.90
2019-02-20T22:23:03.281Z,72.02
2019-02-20T22:26:24.987Z,71.82
2019-02-20T22:29:34.874Z,72.00
2019-02-20T22:32:49.164Z,72.08
2019-02-20T22:36:07.417Z,72.13
2019-02-20T22:38:55.064Z,72.20
2019-02-20T22:41:58.188Z,72.32
2019-02-20T22:44:58.326Z,72.29
2019-02-20T22:47:47.181Z,72.70
2019-02-20T22:50:54.461Z,72.48
2019-02-20T22:57:18.770Z,72.64
2019-02-20T23:00:34.390Z,72.74
2019-02-20T23:03:09.126Z,72.85
2019-02-20T23:05:51.797Z,73.05
2019-02-20T23:09:07.259Z,72.99
2019-02-20T23:12:08.840Z,73.06
2019-02-20T23:14:57.420Z,73.30
2019-02-20T23:17:27.306Z,73.11
2019-02-20T23:19:57.990Z,73.51
2019-02-20T23:22:26.894Z,73.24
2019-02-20T23:24:57.111Z,73.23
2019-02-20T23:27:26.575Z,73.37
2019-02-20T23:29:55.782Z,73.33
2019-02-20T23:32:24.998Z,73.58
2019-02-20T23:34:54.430Z,73.42
2019-02-20T23:37:23.348Z,73.13
2019-02-20T23:39:52.282Z,73.45
2019-02-20T23:42:21.295Z,73.96
2019-02-20T23:44:50.193Z,75.28
2019-02-20T23:47:19.292Z,76.26
2019-02-20T23:49:49.164Z,76.63
2019-02-20T23:52:18.054Z,76.30
2019-02-20T23:54:47.281Z,75.95
2019-02-20T23:57:16.420Z,76.14
2019-02-20T23:59:46.145Z,77.03
